sensor_id;sensor_type;location;lat;lon;timestamp;pressure;altitude;pressure_sealevel;temperature;humidity
15263;BME280;7733;51.554;13.590;2023-02-20T00:01:56;101240.84;;;4.79;90.62
15263;BME280;7733;51.554;13.590;2023-02-20T00:04:22;101244.25;;;4.76;90.32
15263;BME280;7733;51.554;13.590;2023-02-20T00:06:48;101245.56;;;4.95;90.14
15263;BME280;7733;51.554;13.590;2023-02-20T00:09:14;101242.34;;;4.68;90.88
15263;BME280;7733;51.554;13.590;2023-02-20T00:11:39;101233.31;;;4.89;89.99
15263;BME280;7733;51.554;13.590;2023-02-20T00:14:06;101225.19;;;4.76;90.56
15263;BME280;7733;51.554;13.590;2023-02-20T00:16:32;101225.91;;;4.69;91.98
15263;BME280;7733;51.554;13.590;2023-02-20T00:18:57;101212.63;;;4.96;89.80
15263;BME280;7733;51.554;13.590;2023-02-20T00:21:23;101214.00;;;4.80;90.93
15263;BME280;7733;51.554;13.590;2023-02-20T00:23:49;101196.53;;;4.73;91.15
15263;BME280;7733;51.554;13.590;2023-02-20T00:26:15;101195.19;;;4.52;91.42
15263;BME280;7733;51.554;13.590;2023-02-20T00:28:42;101190.00;;;4.52;92.05
15263;BME280;7733;51.554;13.590;2023-02-20T00:31:14;101195.91;;;4.83;90.85
15263;BME280;7733;51.554;13.590;2023-02-20T00:33:40;101195.94;;;4.84;90.93
15263;BME280;7733;51.554;13.590;2023-02-20T00:36:06;101192.41;;;4.81;90.63
15263;BME280;7733;51.554;13.590;2023-02-20T00:38:32;101186.41;;;4.85;90.51
15263;BME280;7733;51.554;13.590;2023-02-20T00:40:58;101177.97;;;4.57;91.05
15263;BME280;7733;51.554;13.590;2023-02-20T00:43:24;101174.97;;;4.77;90.96
15263;BME280;7733;51.554;13.590;2023-02-20T00:45:49;101173.22;;;4.76;90.82
15263;BME280;7733;51.554;13.590;2023-02-20T00:48:15;101157.63;;;4.76;90.75
15263;BME280;7733;51.554;13.590;2023-02-20T00:50:41;101155.75;;;4.69;90.84
15263;BME280;7733;51.554;13.590;2023-02-20T00:53:07;101157.94;;;4.52;91.85
15263;BME280;7733;51.554;13.590;2023-02-20T00:55:32;101162.16;;;4.84;90.65
15263;BME280;7733;51.554;13.590;2023-02-20T00:57:58;101165.22;;;4.67;90.33
15263;BME280;7733;51.554;13.590;2023-02-20T01:00:27;101162.63;;;4.67;91.12
15263;BME280;7733;51.554;13.590;2023-02-20T01:02:54;101165.56;;;4.82;89.75
15263;BME280;7733;51.554;13.590;2023-02-20T01:05:20;101162.81;;;4.76;89.37
15263;BME280;7733;51.554;13.590;2023-02-20T01:07:46;101157.50;;;4.70;90.45
15263;BME280;7733;51.554;13.590;2023-02-20T01:10:13;101150.81;;;4.81;89.36
15263;BME280;7733;51.554;13.590;2023-02-20T01:12:39;101154.22;;;4.80;89.19
15263;BME280;7733;51.554;13.590;2023-02-20T01:15:08;101156.53;;;4.65;90.05
15263;BME280;7733;51.554;13.590;2023-02-20T01:17:35;101149.69;;;4.70;90.56
15263;BME280;7733;51.554;13.590;2023-02-20T01:20:01;101138.34;;;4.65;91.13
15263;BME280;7733;51.554;13.590;2023-02-20T01:22:27;101141.91;;;4.32;93.28
15263;BME280;7733;51.554;13.590;2023-02-20T01:24:52;101138.28;;;4.25;94.19
15263;BME280;7733;51.554;13.590;2023-02-20T01:27:18;101143.56;;;4.28;94.00
15263;BME280;7733;51.554;13.590;2023-02-20T01:29:44;101144.16;;;4.54;93.35
15263;BME280;7733;51.554;13.590;2023-02-20T01:32:13;101152.22;;;4.67;91.77
15263;BME280;7733;51.554;13.590;2023-02-20T01:34:39;101149.75;;;4.35;93.73
15263;BME280;7733;51.554;13.590;2023-02-20T01:37:05;101141.97;;;4.73;92.81
15263;BME280;7733;51.554;13.590;2023-02-20T01:39:30;101140.34;;;4.40;94.02
15263;BME280;7733;51.554;13.590;2023-02-20T01:42:03;101133.47;;;4.05;98.34
15263;BME280;7733;51.554;13.590;2023-02-20T01:44:34;101136.16;;;4.45;98.10
15263;BME280;7733;51.554;13.590;2023-02-20T01:47:06;101130.97;;;4.45;97.80
15263;BME280;7733;51.554;13.590;2023-02-20T01:49:45;101115.69;;;4.21;99.47
15263;BME280;7733;51.554;13.590;2023-02-20T01:52:33;101116.41;;;4.16;100.00
15263;BME280;7733;51.554;13.590;2023-02-20T01:57:34;101118.81;;;4.44;99.52
15263;BME280;7733;51.554;13.590;2023-02-20T02:00:11;101104.63;;;4.30;99.47
15263;BME280;7733;51.554;13.590;2023-02-20T02:02:45;101105.09;;;4.12;100.00
15263;BME280;7733;51.554;13.590;2023-02-20T02:05:13;101089.38;;;4.06;100.00
15263;BME280;7733;51.554;13.590;2023-02-20T02:07:39;101085.69;;;4.34;100.00
15263;BME280;7733;51.554;13.590;2023-02-20T02:10:38;101097.81;;;4.35;100.00
15263;BME280;7733;51.554;13.590;2023-02-20T02:13:08;101094.41;;;4.77;100.00
15263;BME280;7733;51.554;13.590;2023-02-20T02:15:34;101083.94;;;4.33;100.00
15263;BME280;7733;51.554;13.590;2023-02-20T02:18:21;101082.84;;;4.23;100.00
15263;BME280;7733;51.554;13.590;2023-02-20T02:27:30;101089.38;;;4.44;100.00
15263;BME280;7733;51.554;13.590;2023-02-20T02:39:13;101052.19;;;4.46;100.00
15263;BME280;7733;51.554;13.590;2023-02-20T02:45:08;101018.88;;;4.68;100.00
15263;BME280;7733;51.554;13.590;2023-02-20T02:50:46;101023.34;;;4.76;100.00
15263;BME280;7733;51.554;13.590;2023-02-20T02:53:14;101022.47;;;4.76;100.00
15263;BME280;7733;51.554;13.590;2023-02-20T02:55:40;101027.72;;;4.77;100.00
15263;BME280;7733;51.554;13.590;2023-02-20T02:58:07;101033.06;;;4.83;100.00
15263;BME280;7733;51.554;13.590;2023-02-20T03:00:52;101037.50;;;4.91;100.00
15263;BME280;7733;51.554;13.590;2023-02-20T03:03:28;101031.69;;;5.02;100.00
15263;BME280;7733;51.554;13.590;2023-02-20T03:06:21;101034.97;;;4.94;100.00
15263;BME280;7733;51.554;13.590;2023-02-20T03:09:04;101029.09;;;5.02;100.00
15263;BME280;7733;51.554;13.590;2023-02-20T03:11:33;101026.59;;;5.08;100.00
15263;BME280;7733;51.554;13.590;2023-02-20T03:14:40;101029.06;;;5.01;100.00
15263;BME280;7733;51.554;13.590;2023-02-20T03:20:00;101021.56;;;5.19;100.00
15263;BME280;7733;51.554;13.590;2023-02-20T03:22:33;101017.31;;;5.21;100.00
15263;BME280;7733;51.554;13.590;2023-02-20T03:25:22;101010.50;;;5.29;100.00
15263;BME280;7733;51.554;13.590;2023-02-20T03:28:20;101015.94;;;5.43;100.00
15263;BME280;7733;51.554;13.590;2023-02-20T03:31:16;101018.00;;;5.62;100.00
15263;BME280;7733;51.554;13.590;2023-02-20T03:34:05;101001.31;;;5.51;100.00
15263;BME280;7733;51.554;13.590;2023-02-20T03:37:18;101010.06;;;5.56;100.00
15263;BME280;7733;51.554;13.590;2023-02-20T03:40:12;100999.78;;;5.62;100.00
15263;BME280;7733;51.554;13.590;2023-02-20T03:43:06;100996.31;;;5.62;100.00
15263;BME280;7733;51.554;13.590;2023-02-20T03:45:48;100998.94;;;5.65;100.00
15263;BME280;7733;51.554;13.590;2023-02-20T03:48:54;100986.09;;;5.77;100.00
15263;BME280;7733;51.554;13.590;2023-02-20T03:51:13;100986.94;;;5.74;100.00
15263;BME280;7733;51.554;13.590;2023-02-20T03:53:42;100975.78;;;5.82;100.00
15263;BME280;7733;51.554;13.590;2023-02-20T03:56:18;100971.53;;;5.88;100.00
15263;BME280;7733;51.554;13.590;2023-02-20T03:58:54;100970.69;;;5.89;100.00
15263;BME280;7733;51.554;13.590;2023-02-20T04:01:24;100977.72;;;5.95;100.00
15263;BME280;7733;51.554;13.590;2023-02-20T04:03:53;100979.63;;;6.05;100.00
15263;BME280;7733;51.554;13.590;2023-02-20T04:06:25;100975.97;;;5.94;100.00
15263;BME280;7733;51.554;13.590;2023-02-20T04:09:00;100975.28;;;6.04;100.00
15263;BME280;7733;51.554;13.590;2023-02-20T04:11:42;100969.19;;;6.02;100.00
15263;BME280;7733;51.554;13.590;2023-02-20T04:14:12;100957.88;;;6.01;100.00
15263;BME280;7733;51.554;13.590;2023-02-20T04:16:51;100943.31;;;6.17;100.00
15263;BME280;7733;51.554;13.590;2023-02-20T04:19:20;100951.03;;;6.09;100.00
15263;BME280;7733;51.554;13.590;2023-02-20T04:21:54;100956.44;;;6.23;100.00
15263;BME280;7733;51.554;13.590;2023-02-20T04:27:02;100960.84;;;6.29;100.00
15263;BME280;7733;51.554;13.590;2023-02-20T04:29:28;100962.63;;;6.34;100.00
15263;BME280;7733;51.554;13.590;2023-02-20T04:31:54;100956.47;;;6.25;100.00
15263;BME280;7733;51.554;13.590;2023-02-20T04:34:19;100965.22;;;6.33;100.00
15263;BME280;7733;51.554;13.590;2023-02-20T04:36:45;100962.56;;;6.27;100.00
15263;BME280;7733;51.554;13.590;2023-02-20T04:39:11;100963.44;;;6.27;100.00
15263;BME280;7733;51.554;13.590;2023-02-20T04:41:37;100962.91;;;6.56;100.00
15263;BME280;7733;51.554;13.590;2023-02-20T04:44:02;100948.88;;;6.45;100.00
15263;BME280;7733;51.554;13.590;2023-02-20T04:46:47;100955.84;;;6.46;100.00
15263;BME280;7733;51.554;13.590;2023-02-20T04:49:12;100962.06;;;6.58;100.00
15263;BME280;7733;51.554;13.590;2023-02-20T04:51:38;100941.31;;;6.67;100.00
15263;BME280;7733;51.554;13.590;2023-02-20T04:54:04;100948.94;;;6.51;100.00
15263;BME280;7733;51.554;13.590;2023-02-20T04:56:29;100935.13;;;6.59;100.00
15263;BME280;7733;51.554;13.590;2023-02-20T04:58:55;100932.56;;;6.61;100.00
15263;BME280;7733;51.554;13.590;2023-02-20T05:01:21;100931.75;;;6.66;100.00
15263;BME280;7733;51.554;13.590;2023-02-20T05:03:46;100921.38;;;6.72;100.00
15263;BME280;7733;51.554;13.590;2023-02-20T05:06:12;100919.66;;;6.76;100.00
15263;BME280;7733;51.554;13.590;2023-02-20T05:08:38;100945.63;;;6.64;100.00
15263;BME280;7733;51.554;13.590;2023-02-20T05:11:04;100938.75;;;6.72;100.00
15263;BME280;7733;51.554;13.590;2023-02-20T05:13:30;100925.75;;;6.75;100.00
15263;BME280;7733;51.554;13.590;2023-02-20T05:15:55;100926.56;;;6.71;100.00
15263;BME280;7733;51.554;13.590;2023-02-20T05:18:26;100910.13;;;6.77;100.00
15263;BME280;7733;51.554;13.590;2023-02-20T05:20:52;100899.81;;;6.87;100.00
15263;BME280;7733;51.554;13.590;2023-02-20T05:23:50;100891.00;;;6.79;100.00
15263;BME280;7733;51.554;13.590;2023-02-20T05:26:20;100884.16;;;6.86;100.00
15263;BME280;7733;51.554;13.590;2023-02-20T05:28:46;100883.19;;;6.79;100.00
15263;BME280;7733;51.554;13.590;2023-02-20T05:31:12;100868.50;;;6.86;100.00
15263;BME280;7733;51.554;13.590;2023-02-20T05:33:38;100868.53;;;6.90;100.00
15263;BME280;7733;51.554;13.590;2023-02-20T05:36:04;100872.88;;;6.91;100.00
15263;BME280;7733;51.554;13.590;2023-02-20T05:38:30;100865.97;;;6.96;100.00
15263;BME280;7733;51.554;13.590;2023-02-20T05:40:56;100873.75;;;6.90;100.00
15263;BME280;7733;51.554;13.590;2023-02-20T05:43:22;100865.09;;;6.96;100.00
15263;BME280;7733;51.554;13.590;2023-02-20T05:45:47;100865.97;;;6.96;100.00
15263;BME280;7733;51.554;13.590;2023-02-20T05:48:14;100869.53;;;7.05;100.00
15263;BME280;7733;51.554;13.590;2023-02-20T05:50:40;100866.94;;;7.08;100.00
15263;BME280;7733;51.554;13.590;2023-02-20T05:53:06;100853.88;;;7.01;100.00
15263;BME280;7733;51.554;13.590;2023-02-20T05:55:32;100849.47;;;6.97;100.00
15263;BME280;7733;51.554;13.590;2023-02-20T05:57:58;100826.00;;;7.00;100.00
15263;BME280;7733;51.554;13.590;2023-02-20T06:00:24;100831.31;;;7.11;100.00
15263;BME280;7733;51.554;13.590;2023-02-20T06:02:50;100832.22;;;7.16;100.00
15263;BME280;7733;51.554;13.590;2023-02-20T06:05:17;100838.38;;;7.23;100.00
15263;BME280;7733;51.554;13.590;2023-02-20T06:07:46;100837.50;;;7.25;99.93
15263;BME280;7733;51.554;13.590;2023-02-20T06:10:15;100831.41;;;7.23;99.02
15263;BME280;7733;51.554;13.590;2023-02-20T06:12:42;100829.59;;;7.12;99.15
15263;BME280;7733;51.554;13.590;2023-02-20T06:15:08;100820.09;;;7.21;99.12
15263;BME280;7733;51.554;13.590;2023-02-20T06:17:34;100806.25;;;7.33;98.28
15263;BME280;7733;51.554;13.590;2023-02-20T06:20:00;100810.56;;;7.26;98.13
15263;BME280;7733;51.554;13.590;2023-02-20T06:22:26;100807.19;;;7.41;97.73
15263;BME280;7733;51.554;13.590;2023-02-20T06:24:51;100810.59;;;7.37;97.76
15263;BME280;7733;51.554;13.590;2023-02-20T06:27:17;100802.72;;;7.26;98.74
15263;BME280;7733;51.554;13.590;2023-02-20T06:29:46;100798.53;;;7.57;97.59
15263;BME280;7733;51.554;13.590;2023-02-20T06:32:12;100806.34;;;7.54;97.33
15263;BME280;7733;51.554;13.590;2023-02-20T06:34:38;100814.09;;;7.36;98.49
15263;BME280;7733;51.554;13.590;2023-02-20T06:37:04;100810.69;;;7.46;98.31
15263;BME280;7733;51.554;13.590;2023-02-20T06:39:31;100813.31;;;7.52;98.39
15263;BME280;7733;51.554;13.590;2023-02-20T06:41:57;100813.31;;;7.54;98.75
15263;BME280;7733;51.554;13.590;2023-02-20T06:44:23;100809.94;;;7.78;97.91
15263;BME280;7733;51.554;13.590;2023-02-20T06:46:49;100802.06;;;7.66;99.28
15263;BME280;7733;51.554;13.590;2023-02-20T06:49:15;100805.50;;;7.57;100.00
15263;BME280;7733;51.554;13.590;2023-02-20T06:51:41;100807.28;;;7.62;100.00
15263;BME280;7733;51.554;13.590;2023-02-20T06:54:07;100792.41;;;7.49;100.00
15263;BME280;7733;51.554;13.590;2023-02-20T06:56:35;100785.44;;;7.47;100.00
15263;BME280;7733;51.554;13.590;2023-02-20T06:59:05;100793.31;;;7.53;100.00
15263;BME280;7733;51.554;13.590;2023-02-20T07:01:41;100790.72;;;7.59;100.00
15263;BME280;7733;51.554;13.590;2023-02-20T07:04:21;100794.19;;;7.59;100.00
15263;BME280;7733;51.554;13.590;2023-02-20T07:06:47;100799.50;;;7.78;100.00
15263;BME280;7733;51.554;13.590;2023-02-20T07:09:14;100800.34;;;7.72;100.00
15263;BME280;7733;51.554;13.590;2023-02-20T07:11:41;100799.44;;;7.61;100.00
15263;BME280;7733;51.554;13.590;2023-02-20T07:14:07;100801.22;;;7.76;99.95
15263;BME280;7733;51.554;13.590;2023-02-20T07:16:33;100792.53;;;7.72;99.29
15263;BME280;7733;51.554;13.590;2023-02-20T07:18:58;100791.72;;;7.93;98.45
15263;BME280;7733;51.554;13.590;2023-02-20T07:21:25;100805.63;;;7.83;97.95
15263;BME280;7733;51.554;13.590;2023-02-20T07:23:51;100800.38;;;7.80;97.44
15263;BME280;7733;51.554;13.590;2023-02-20T07:26:27;100807.31;;;7.69;97.63
15263;BME280;7733;51.554;13.590;2023-02-20T07:28:54;100797.81;;;7.90;96.74
15263;BME280;7733;51.554;13.590;2023-02-20T07:31:23;100796.88;;;7.78;96.80
15263;BME280;7733;51.554;13.590;2023-02-20T07:33:50;100790.03;;;8.04;94.72
15263;BME280;7733;51.554;13.590;2023-02-20T07:36:16;100784.75;;;7.92;95.04
15263;BME280;7733;51.554;13.590;2023-02-20T07:38:42;100778.66;;;7.84;94.52
15263;BME280;7733;51.554;13.590;2023-02-20T07:41:08;100764.72;;;7.86;94.00
15263;BME280;7733;51.554;13.590;2023-02-20T07:43:34;100777.78;;;7.89;93.54
15263;BME280;7733;51.554;13.590;2023-02-20T07:46:00;100788.25;;;8.00;92.04
15263;BME280;7733;51.554;13.590;2023-02-20T07:48:26;100782.19;;;8.03;92.59
15263;BME280;7733;51.554;13.590;2023-02-20T07:50:52;100746.44;;;7.97;91.67
15263;BME280;7733;51.554;13.590;2023-02-20T07:53:20;100716.88;;;8.04;90.78
15263;BME280;7733;51.554;13.590;2023-02-20T07:55:46;100730.81;;;8.15;90.44
15263;BME280;7733;51.554;13.590;2023-02-20T07:58:11;100744.78;;;8.22;89.96
15263;BME280;7733;51.554;13.590;2023-02-20T08:00:37;100764.84;;;8.40;88.54
15263;BME280;7733;51.554;13.590;2023-02-20T08:03:03;100762.19;;;8.29;87.86
15263;BME280;7733;51.554;13.590;2023-02-20T08:05:29;100749.13;;;8.23;88.87
15263;BME280;7733;51.554;13.590;2023-02-20T08:07:55;100741.25;;;8.17;87.90
15263;BME280;7733;51.554;13.590;2023-02-20T08:10:25;100753.47;;;8.13;88.27
15263;BME280;7733;51.554;13.590;2023-02-20T08:12:53;100733.44;;;8.15;87.92
15263;BME280;7733;51.554;13.590;2023-02-20T08:15:21;100732.59;;;8.29;87.03
15263;BME280;7733;51.554;13.590;2023-02-20T08:17:47;100716.06;;;8.34;87.21
15263;BME280;7733;51.554;13.590;2023-02-20T08:20:15;100714.28;;;8.19;85.95
15263;BME280;7733;51.554;13.590;2023-02-20T08:22:47;100743.06;;;8.41;86.12
15263;BME280;7733;51.554;13.590;2023-02-20T08:25:15;100752.66;;;8.56;85.35
15263;BME280;7733;51.554;13.590;2023-02-20T08:27:45;100747.44;;;8.48;84.08
15263;BME280;7733;51.554;13.590;2023-02-20T08:30:16;100732.63;;;8.50;84.28
15263;BME280;7733;51.554;13.590;2023-02-20T08:32:42;100709.09;;;8.53;84.42
15263;BME280;7733;51.554;13.590;2023-02-20T08:35:08;100702.06;;;8.79;83.48
15263;BME280;7733;51.554;13.590;2023-02-20T08:37:34;100686.41;;;8.69;83.69
15263;BME280;7733;51.554;13.590;2023-02-20T08:40:00;100695.13;;;8.71;82.84
15263;BME280;7733;51.554;13.590;2023-02-20T08:42:31;100696.88;;;8.82;83.28
15263;BME280;7733;51.554;13.590;2023-02-20T08:44:58;100693.34;;;8.90;84.04
15263;BME280;7733;51.554;13.590;2023-02-20T08:47:24;100703.78;;;8.96;83.75
15263;BME280;7733;51.554;13.590;2023-02-20T08:49:50;100703.81;;;8.79;83.11
15263;BME280;7733;51.554;13.590;2023-02-20T08:52:16;100700.31;;;8.92;83.79
15263;BME280;7733;51.554;13.590;2023-02-20T08:54:46;100700.34;;;8.86;83.19
15263;BME280;7733;51.554;13.590;2023-02-20T08:57:13;100695.06;;;8.97;83.47
15263;BME280;7733;51.554;13.590;2023-02-20T08:59:39;100686.38;;;8.89;83.76
15263;BME280;7733;51.554;13.590;2023-02-20T09:02:06;100685.47;;;8.96;83.07
15263;BME280;7733;51.554;13.590;2023-02-20T09:04:33;100678.50;;;8.93;82.93
15263;BME280;7733;51.554;13.590;2023-02-20T09:06:58;100675.06;;;8.87;83.09
15263;BME280;7733;51.554;13.590;2023-02-20T09:09:24;100665.41;;;8.96;82.99
15263;BME280;7733;51.554;13.590;2023-02-20T09:11:50;100655.81;;;9.06;82.67
15263;BME280;7733;51.554;13.590;2023-02-20T09:14:16;100648.84;;;9.05;83.21
15263;BME280;7733;51.554;13.590;2023-02-20T09:16:41;100654.97;;;8.96;82.99
15263;BME280;7733;51.554;13.590;2023-02-20T09:19:08;100649.72;;;8.96;83.40
15263;BME280;7733;51.554;13.590;2023-02-20T09:21:34;100645.34;;;9.07;83.28
15263;BME280;7733;51.554;13.590;2023-02-20T09:24:01;100654.09;;;9.02;83.58
15263;BME280;7733;51.554;13.590;2023-02-20T09:26:26;100645.38;;;8.92;83.28
15263;BME280;7733;51.554;13.590;2023-02-20T09:28:52;100653.22;;;8.95;83.43
15263;BME280;7733;51.554;13.590;2023-02-20T09:31:18;100639.25;;;8.99;83.77
15263;BME280;7733;51.554;13.590;2023-02-20T09:33:45;100641.00;;;9.03;83.44
15263;BME280;7733;51.554;13.590;2023-02-20T09:36:11;100643.56;;;9.14;83.88
15263;BME280;7733;51.554;13.590;2023-02-20T09:38:37;100640.09;;;9.09;83.61
15263;BME280;7733;51.554;13.590;2023-02-20T09:41:03;100634.81;;;9.21;82.99
15263;BME280;7733;51.554;13.590;2023-02-20T09:43:41;100634.81;;;9.18;83.11
15263;BME280;7733;51.554;13.590;2023-02-20T09:46:21;100619.16;;;9.09;83.64
15263;BME280;7733;51.554;13.590;2023-02-20T09:51:43;100628.59;;;9.45;82.60
15263;BME280;7733;51.554;13.590;2023-02-20T09:56:55;100616.41;;;9.35;82.89
15263;BME280;7733;51.554;13.590;2023-02-20T09:59:28;100618.00;;;9.60;82.44
15263;BME280;7733;51.554;13.590;2023-02-20T10:02:03;100611.97;;;9.52;83.23
15263;BME280;7733;51.554;13.590;2023-02-20T10:04:49;100605.03;;;9.43;83.52
15263;BME280;7733;51.554;13.590;2023-02-20T10:07:27;100603.28;;;9.45;82.22
15263;BME280;7733;51.554;13.590;2023-02-20T10:09:55;100605.81;;;9.58;82.14
15263;BME280;7733;51.554;13.590;2023-02-20T10:23:49;100559.41;;;9.75;81.25
15263;BME280;7733;51.554;13.590;2023-02-20T10:26:26;100551.44;;;9.90;80.99
15263;BME280;7733;51.554;13.590;2023-02-20T10:29:03;100551.44;;;9.90;80.78
15263;BME280;7733;51.554;13.590;2023-02-20T10:31:44;100538.22;;;9.99;80.29
15263;BME280;7733;51.554;13.590;2023-02-20T10:34:40;100532.66;;;10.36;79.67
15263;BME280;7733;51.554;13.590;2023-02-20T10:37:16;100515.34;;;10.23;78.49
15263;BME280;7733;51.554;13.590;2023-02-20T10:39:56;100506.47;;;10.33;78.11
15263;BME280;7733;51.554;13.590;2023-02-20T10:42:44;100506.47;;;10.33;78.11
15263;BME280;7733;51.554;13.590;2023-02-20T10:45:26;100497.78;;;10.31;77.94
15263;BME280;7733;51.554;13.590;2023-02-20T10:48:08;100492.19;;;10.61;77.41
15263;BME280;7733;51.554;13.590;2023-02-20T10:50:48;100477.53;;;10.44;77.83
15263;BME280;7733;51.554;13.590;2023-02-20T10:53:31;100481.06;;;10.38;77.20
15263;BME280;7733;51.554;13.590;2023-02-20T10:58:45;100483.56;;;10.50;76.52
15263;BME280;7733;51.554;13.590;2023-02-20T11:01:19;100478.16;;;10.61;76.00
15263;BME280;7733;51.554;13.590;2023-02-20T11:04:14;100480.88;;;10.55;76.01
15263;BME280;7733;51.554;13.590;2023-02-20T11:06:49;100465.78;;;10.74;76.65
15263;BME280;7733;51.554;13.590;2023-02-20T11:09:15;100471.19;;;10.61;75.76
15263;BME280;7733;51.554;13.590;2023-02-20T11:11:44;100451.03;;;10.65;74.69
15263;BME280;7733;51.554;13.590;2023-02-20T11:14:15;100452.75;;;10.68;75.21
15263;BME280;7733;51.554;13.590;2023-02-20T11:19:33;100440.13;;;10.94;74.55
15263;BME280;7733;51.554;13.590;2023-02-20T11:22:03;100442.78;;;10.91;73.80
15263;BME280;7733;51.554;13.590;2023-02-20T11:24:40;100432.16;;;11.00;73.71
15263;BME280;7733;51.554;13.590;2023-02-20T11:30:10;100419.56;;;11.23;72.16
15263;BME280;7733;51.554;13.590;2023-02-20T11:32:41;100414.78;;;11.47;72.88
15263;BME280;7733;51.554;13.590;2023-02-20T11:38:15;100400.44;;;11.66;71.35
15263;BME280;7733;51.554;13.590;2023-02-20T11:40:34;100398.66;;;11.67;71.30
15263;BME280;7733;51.554;13.590;2023-02-20T11:46:18;100375.75;;;11.73;70.12
15263;BME280;7733;51.554;13.590;2023-02-20T11:49:07;100385.38;;;11.74;70.43
15263;BME280;7733;51.554;13.590;2023-02-20T11:51:38;100383.19;;;11.98;69.98
15263;BME280;7733;51.554;13.590;2023-02-20T11:54:23;100385.25;;;11.83;68.94
15263;BME280;7733;51.554;13.590;2023-02-20T11:59:49;100383.34;;;11.90;69.52
15263;BME280;7733;51.554;13.590;2023-02-20T12:05:01;100373.25;;;12.13;69.35
15263;BME280;7733;51.554;13.590;2023-02-20T12:10:19;100355.69;;;12.14;69.35
15263;BME280;7733;51.554;13.590;2023-02-20T12:12:46;100348.66;;;12.16;69.48
15263;BME280;7733;51.554;13.590;2023-02-20T12:15:17;100337.19;;;12.18;69.79
15263;BME280;7733;51.554;13.590;2023-02-20T12:23:54;100315.53;;;12.47;69.19
15263;BME280;7733;51.554;13.590;2023-02-20T12:26:37;100322.41;;;12.53;69.56
15263;BME280;7733;51.554;13.590;2023-02-20T12:35:30;100337.47;;;12.84;68.91
15263;BME280;7733;51.554;13.590;2023-02-20T12:49:52;100305.06;;;12.44;71.36
15263;BME280;7733;51.554;13.590;2023-02-20T12:55:15;100307.66;;;12.46;71.45
15263;BME280;7733;51.554;13.590;2023-02-20T12:58:13;100289.88;;;12.56;71.47
15263;BME280;7733;51.554;13.590;2023-02-20T13:00:47;100292.78;;;12.45;71.62
15263;BME280;7733;51.554;13.590;2023-02-20T13:03:23;100284.75;;;12.51;71.30
15263;BME280;7733;51.554;13.590;2023-02-20T13:05:50;100294.94;;;12.65;71.07
15263;BME280;7733;51.554;13.590;2023-02-20T13:08:26;100282.06;;;12.53;71.11
15263;BME280;7733;51.554;13.590;2023-02-20T13:11:08;100275.00;;;12.55;71.50
15263;BME280;7733;51.554;13.590;2023-02-20T13:16:38;100278.34;;;12.61;71.96
15263;BME280;7733;51.554;13.590;2023-02-20T13:19:31;100276.59;;;12.62;72.65
15263;BME280;7733;51.554;13.590;2023-02-20T13:22:01;100285.25;;;12.67;72.71
15263;BME280;7733;51.554;13.590;2023-02-20T13:24:27;100271.19;;;12.68;72.46
15263;BME280;7733;51.554;13.590;2023-02-20T13:27:05;100276.03;;;12.49;72.88
15263;BME280;7733;51.554;13.590;2023-02-20T13:29:38;100270.94;;;12.77;73.65
15263;BME280;7733;51.554;13.590;2023-02-20T13:34:45;100277.56;;;12.58;74.47
15263;BME280;7733;51.554;13.590;2023-02-20T13:45:45;100282.41;;;12.37;74.96
15263;BME280;7733;51.554;13.590;2023-02-20T13:50:44;100285.84;;;12.42;75.22
15263;BME280;7733;51.554;13.590;2023-02-20T13:53:10;100292.00;;;12.41;75.59
15263;BME280;7733;51.554;13.590;2023-02-20T13:55:36;100283.66;;;12.23;76.85
15263;BME280;7733;51.554;13.590;2023-02-20T14:00:51;100293.78;;;12.39;76.53
15263;BME280;7733;51.554;13.590;2023-02-20T14:03:27;100292.31;;;12.28;77.39
15263;BME280;7733;51.554;13.590;2023-02-20T14:06:12;100281.81;;;12.26;76.95
15263;BME280;7733;51.554;13.590;2023-02-20T14:08:45;100291.56;;;12.21;77.38
15263;BME280;7733;51.554;13.590;2023-02-20T14:11:32;100290.88;;;12.13;77.50
15263;BME280;7733;51.554;13.590;2023-02-20T14:14:17;100284.63;;;12.17;77.81
15263;BME280;7733;51.554;13.590;2023-02-20T14:16:46;100283.19;;;12.04;77.70
15263;BME280;7733;51.554;13.590;2023-02-20T14:19:24;100286.63;;;12.07;78.49
15263;BME280;7733;51.554;13.590;2023-02-20T14:21:51;100279.53;;;12.11;78.07
15263;BME280;7733;51.554;13.590;2023-02-20T14:24:21;100283.94;;;12.09;78.34
15263;BME280;7733;51.554;13.590;2023-02-20T14:26:49;100282.78;;;12.22;78.64
15263;BME280;7733;51.554;13.590;2023-02-20T14:29:28;100281.41;;;12.06;78.72
15263;BME280;7733;51.554;13.590;2023-02-20T14:31:57;100286.41;;;12.16;78.44
15263;BME280;7733;51.554;13.590;2023-02-20T14:34:43;100297.09;;;12.09;79.24
15263;BME280;7733;51.554;13.590;2023-02-20T14:42:43;100272.34;;;12.17;79.59
15263;BME280;7733;51.554;13.590;2023-02-20T14:45:22;100297.13;;;12.07;80.18
15263;BME280;7733;51.554;13.590;2023-02-20T14:48:00;100296.34;;;12.04;80.55
15263;BME280;7733;51.554;13.590;2023-02-20T14:50:33;100291.00;;;12.07;80.42
15263;BME280;7733;51.554;13.590;2023-02-20T14:53:16;100289.06;;;12.15;80.66
15263;BME280;7733;51.554;13.590;2023-02-20T14:55:42;100288.16;;;12.16;80.57
15263;BME280;7733;51.554;13.590;2023-02-20T14:58:13;100290.84;;;12.14;80.41
15263;BME280;7733;51.554;13.590;2023-02-20T15:00:42;100295.19;;;12.15;81.31
15263;BME280;7733;51.554;13.590;2023-02-20T15:03:19;100283.94;;;12.09;81.84
15263;BME280;7733;51.554;13.590;2023-02-20T15:05:46;100296.88;;;12.18;81.33
15263;BME280;7733;51.554;13.590;2023-02-20T15:10:47;100303.84;;;12.21;81.81
15263;BME280;7733;51.554;13.590;2023-02-20T15:13:18;100299.50;;;12.18;81.94
15263;BME280;7733;51.554;13.590;2023-02-20T15:15:50;100320.59;;;12.16;82.12
15263;BME280;7733;51.554;13.590;2023-02-20T15:18:34;100324.03;;;12.18;82.08
15263;BME280;7733;51.554;13.590;2023-02-20T15:21:01;100328.50;;;12.15;82.25